Time;durP1;ratioP1;P1;durP2;ratioP2;P2;SDS_P1;SDS_P2;PMS_P1;PMS_P2;Temp;Humidity;BMP_temperature;BMP_pressure;BME280_temperature;BME280_humidity;BME280_pressure;Samples;Min_cycle;Max_cycle;Signal;HPM_P1;HPM_P2
2022/01/09 00:01:32;;;;;;;3.92;0.52;;;;;;;7.98;74.42;99326.81;7388629;19;20021;-67
2022/01/09 00:04:00;;;;;;;5.55;0.50;;;;;;;7.94;75.10;99333.38;7393021;19;20007;-69
2022/01/09 00:06:27;;;;;;;4.18;0.32;;;;;;;7.94;75.37;99346.47;7388363;19;20010;-67
2022/01/09 00:08:55;;;;;;;5.47;0.40;;;;;;;7.94;75.72;99342.06;7390501;19;20025;-67
2022/01/09 00:11:26;;;;;;;7.50;0.98;;;;;;;7.93;76.76;99339.59;7391081;19;20034;-66
2022/01/09 00:13:54;;;;;;;6.57;0.40;;;;;;;7.88;76.21;99344.53;7389043;19;20018;-65
2022/01/09 00:16:23;;;;;;;3.25;0.20;;;;;;;7.88;75.14;99349.78;7389500;19;20018;-66
2022/01/09 00:18:51;;;;;;;7.03;0.80;;;;;;;7.87;75.98;99362.09;7388713;19;20126;-68
2022/01/09 00:21:18;;;;;;;4.82;0.80;;;;;;;7.86;76.30;99355.22;7393832;19;20034;-66
2022/01/09 00:23:46;;;;;;;8.02;0.35;;;;;;;7.85;75.89;99348.34;7389774;19;20007;-67
2022/01/09 00:26:16;;;;;;;7.40;0.98;;;;;;;7.82;76.01;99363.59;7378372;19;20010;-67
2022/01/09 00:28:49;;;;;;;6.95;0.75;;;;;;;7.78;76.53;99363.09;7384257;19;20007;-67
2022/01/09 00:31:16;;;;;;;4.90;0.30;;;;;;;7.80;76.18;99357.69;7391152;19;20014;-67
2022/01/09 00:33:45;;;;;;;3.95;0.52;;;;;;;7.81;76.87;99367.19;7391369;19;20014;-66
2022/01/09 00:36:12;;;;;;;4.43;0.25;;;;;;;7.81;76.71;99368.00;7391436;19;20050;-68
2022/01/09 00:38:45;;;;;;;4.75;0.30;;;;;;;7.80;76.42;99376.84;7389762;19;20037;-67
2022/01/09 00:41:13;;;;;;;4.20;0.40;;;;;;;7.80;77.24;99379.44;7389716;19;20007;-67
2022/01/09 00:43:40;;;;;;;4.32;0.30;;;;;;;7.79;76.39;99388.28;7393535;19;20018;-67
2022/01/09 00:46:09;;;;;;;6.35;0.40;;;;;;;7.80;76.58;99386.50;7389389;19;20336;-67
2022/01/09 00:48:36;;;;;;;5.40;0.50;;;;;;;7.80;76.59;99382.06;7390179;19;20010;-67
2022/01/09 00:51:04;;;;;;;6.28;0.55;;;;;;;7.79;75.94;99388.28;7391244;19;20034;-67
2022/01/09 00:53:31;;;;;;;11.15;0.98;;;;;;;7.78;76.36;99389.25;7393806;19;20007;-66
2022/01/09 00:55:59;;;;;;;6.18;0.30;;;;;;;7.77;76.27;99402.53;7385787;19;20015;-67
2022/01/09 00:58:27;;;;;;;6.85;1.23;;;;;;;7.76;76.02;99400.91;7391597;19;20018;-67
2022/01/09 01:00:54;;;;;;;3.45;0.35;;;;;;;7.76;76.70;99406.16;7387426;19;20114;-67
2022/01/09 01:03:22;;;;;;;7.93;0.60;;;;;;;7.73;76.71;99410.72;7387581;19;20011;-68
2022/01/09 01:05:50;;;;;;;9.55;2.08;;;;;;;7.69;76.49;99406.81;7391711;19;20031;-67
2022/01/09 01:08:22;;;;;;;6.57;0.55;;;;;;;7.67;76.67;99419.25;7394004;19;20054;-67
2022/01/09 01:10:49;;;;;;;6.88;0.80;;;;;;;7.66;76.21;99422.88;7392011;19;20077;-67
2022/01/09 01:13:18;;;;;;;8.27;0.50;;;;;;;7.67;77.56;99424.47;7389414;19;20011;-67
2022/01/09 01:15:50;;;;;;;5.50;0.40;;;;;;;7.66;76.55;99427.28;7389138;19;20082;-67
2022/01/09 01:18:21;;;;;;;5.90;0.30;;;;;;;7.65;76.44;99423.03;7390355;19;20427;-67
2022/01/09 01:20:56;;;;;;;9.48;0.82;;;;;;;7.61;76.70;99429.59;7387712;19;20003;-68
2022/01/09 01:23:24;;;;;;;3.75;0.45;;;;;;;7.58;76.74;99435.97;7384901;19;20404;-67
2022/01/09 01:25:52;;;;;;;7.65;0.77;;;;;;;7.61;76.54;99432.22;7386933;19;20017;-68
2022/01/09 01:28:20;;;;;;;5.85;0.32;;;;;;;7.63;77.37;99438.06;7384976;19;20037;-68
2022/01/09 01:30:47;;;;;;;3.78;0.40;;;;;;;7.62;76.25;99437.25;7384474;19;20142;-67
2022/01/09 01:33:15;;;;;;;4.25;1.17;;;;;;;7.63;76.94;99445.94;7387300;19;20017;-67
2022/01/09 01:35:44;;;;;;;2.25;0.35;;;;;;;7.61;76.68;99447.91;7389414;19;20021;-66
2022/01/09 01:38:11;;;;;;;10.38;0.35;;;;;;;7.61;76.28;99450.53;7388000;19;20014;-68
2022/01/09 01:40:40;;;;;;;8.02;0.40;;;;;;;7.62;76.45;99452.13;7383978;19;20014;-67
2022/01/09 01:43:08;;;;;;;5.95;0.30;;;;;;;7.62;75.82;99458.19;7389911;19;20010;-68
2022/01/09 01:45:35;;;;;;;16.40;4.22;;;;;;;7.63;76.84;99464.25;7385341;19;20014;-67
2022/01/09 01:50:37;;;;;;;4.55;0.40;;;;;;;7.61;76.32;99463.63;7385165;19;20019;-68
2022/01/09 01:53:17;;;;;;;7.57;0.52;;;;;;;7.54;75.42;99460.03;7387101;19;20011;-68
2022/01/09 01:55:48;;;;;;;8.00;0.70;;;;;;;7.53;75.69;99471.47;7386727;19;20013;-68
2022/01/09 01:58:15;;;;;;;3.85;0.20;;;;;;;7.50;75.76;99479.66;7384561;19;20010;-66
2022/01/09 02:00:42;;;;;;;6.93;0.40;;;;;;;7.50;76.15;99477.06;7388321;19;20476;-67
2022/01/09 02:03:10;;;;;;;5.85;0.45;;;;;;;7.48;75.92;99477.22;7388478;19;20015;-66
2022/01/09 02:05:42;;;;;;;6.28;0.30;;;;;;;7.50;75.88;99490.13;7392009;19;20011;-66
2022/01/09 02:08:09;;;;;;;6.47;0.30;;;;;;;7.49;75.96;99489.31;7392124;19;20014;-67
2022/01/09 02:10:40;;;;;;;7.80;0.38;;;;;;;7.49;75.90;99484.09;7387381;19;20010;-68
2022/01/09 02:13:08;;;;;;;11.13;0.57;;;;;;;7.47;75.47;99480.81;7388047;19;20038;-68
2022/01/09 02:15:39;;;;;;;9.38;0.85;;;;;;;7.48;76.43;99490.28;7388124;19;20037;-68
2022/01/09 02:18:09;;;;;;;7.75;0.50;;;;;;;7.51;76.51;99499.63;7385438;19;20021;-68
2022/01/09 02:20:38;;;;;;;6.25;0.28;;;;;;;7.50;75.89;99490.13;7389645;19;20015;-67
2022/01/09 02:23:08;;;;;;;6.85;0.40;;;;;;;7.50;76.30;99500.59;7386747;19;20011;-67
2022/01/09 02:25:36;;;;;;;5.63;0.60;;;;;;;7.48;76.23;99498.16;7392560;19;20010;-67
2022/01/09 02:28:06;;;;;;;5.93;0.57;;;;;;;7.49;76.52;99504.19;7393974;19;20364;-67
2022/01/09 02:30:34;;;;;;;8.65;0.50;;;;;;;7.44;75.79;99511.72;7395685;19;20048;-67
2022/01/09 02:33:04;;;;;;;5.13;0.40;;;;;;;7.43;75.81;99513.53;7399280;19;20014;-67
2022/01/09 02:35:38;;;;;;;5.30;0.40;;;;;;;7.40;75.22;99513.88;7394382;19;20025;-67
2022/01/09 02:38:07;;;;;;;4.70;0.38;;;;;;;7.39;76.55;99511.41;7394027;19;20488;-67
2022/01/09 02:40:34;;;;;;;8.23;0.43;;;;;;;7.39;75.79;99514.03;7394825;19;20006;-67
2022/01/09 02:43:03;;;;;;;8.52;1.27;;;;;;;7.35;76.26;99507.50;7396396;19;20018;-67
2022/01/09 02:45:31;;;;;;;8.93;0.55;;;;;;;7.36;76.94;99509.13;7395197;19;20007;-66
2022/01/09 02:48:02;;;;;;;5.80;0.30;;;;;;;7.34;76.23;99514.53;7392719;19;20010;-66
2022/01/09 02:50:34;;;;;;;4.60;0.30;;;;;;;7.34;76.56;99521.53;7394352;19;20127;-67
2022/01/09 02:53:13;;;;;;;;;;;;;;;7.34;77.00;99513.69;7392865;19;20022;-67
2022/01/09 02:55:40;;;;;;;6.80;0.30;;;;;;;7.29;75.88;99511.56;7391361;19;19948;-67
2022/01/09 02:58:08;;;;;;;6.03;0.50;;;;;;;7.29;76.27;99522.03;7392578;19;20011;-65
2022/01/09 03:00:40;;;;;;;5.95;0.30;;;;;;;7.29;76.33;99516.81;7395445;19;20036;-66
2022/01/09 03:03:08;;;;;;;3.05;0.50;;;;;;;7.28;76.15;99517.78;7392462;19;20011;-67
2022/01/09 03:05:36;;;;;;;10.73;0.77;;;;;;;7.28;76.05;99531.69;7396442;19;20509;-68
2022/01/09 03:08:04;;;;;;;6.38;0.30;;;;;;;7.27;75.86;99531.84;7396224;19;20468;-67
2022/01/09 03:10:31;;;;;;;5.07;0.40;;;;;;;7.29;75.97;99533.31;7395308;19;20034;-67
2022/01/09 03:12:59;;;;;;;7.55;1.20;;;;;;;7.30;77.33;99534.16;7395147;19;20007;-67
2022/01/09 03:15:27;;;;;;;4.25;0.40;;;;;;;7.28;76.36;99530.88;7395800;19;20018;-66
2022/01/09 03:17:54;;;;;;;5.63;0.68;;;;;;;7.26;76.55;99541.47;7390649;19;20011;-66
2022/01/09 03:20:24;;;;;;;5.72;0.40;;;;;;;7.28;77.31;99550.00;7395346;19;20007;-67
2022/01/09 03:22:54;;;;;;;7.28;0.30;;;;;;;7.29;76.78;99543.78;7391808;19;20006;-67
2022/01/09 03:25:23;;;;;;;14.95;1.48;;;;;;;7.27;76.45;99550.97;7391630;19;20007;-67
2022/01/09 03:27:51;;;;;;;4.22;0.30;;;;;;;7.30;76.37;99553.28;7392705;19;20017;-67
2022/01/09 03:30:21;;;;;;;6.65;0.60;;;;;;;7.28;76.08;99555.22;7393881;19;20138;-68
2022/01/09 03:32:51;;;;;;;4.00;0.30;;;;;;;7.27;76.47;99552.75;7393550;19;20628;-67
2022/01/09 03:35:21;;;;;;;5.03;0.30;;;;;;;7.27;76.07;99563.22;7394765;19;20352;-69
2022/01/09 03:37:50;;;;;;;3.83;0.43;;;;;;;7.27;76.01;99566.66;7392280;19;20006;-67
2022/01/09 03:40:20;;;;;;;8.85;0.98;;;;;;;7.27;76.51;99560.63;7392209;19;20018;-67
2022/01/09 03:42:51;;;;;;;2.17;0.45;;;;;;;7.25;76.20;99571.25;7394363;19;20014;-68
2022/01/09 03:45:20;;;;;;;10.05;0.20;;;;;;;7.25;75.67;99580.91;7395122;19;20496;-67
2022/01/09 03:47:48;;;;;;;3.67;0.45;;;;;;;7.22;75.68;99566.34;7391927;19;20074;-67
2022/01/09 03:50:17;;;;;;;8.73;0.40;;;;;;;7.20;75.95;99578.78;7390990;19;20014;-68
2022/01/09 03:52:49;;;;;;;6.33;1.13;;;;;;;7.20;76.04;99573.56;7391268;19;20018;-67
2022/01/09 03:55:21;;;;;;;5.90;0.10;;;;;;;7.19;76.61;99568.47;7389986;19;20021;-66
2022/01/09 03:57:49;;;;;;;7.65;0.40;;;;;;;7.16;76.40;99572.22;7395608;19;20850;-69
2022/01/09 04:00:20;;;;;;;6.95;0.50;;;;;;;7.17;76.02;99575.66;7390235;19;20026;-68
2022/01/09 04:02:48;;;;;;;5.57;0.82;;;;;;;7.17;77.08;99580.88;7390137;19;20076;-66
2022/01/09 04:05:17;;;;;;;6.65;0.40;;;;;;;7.16;76.90;99579.28;7394567;19;20421;-67
2022/01/09 04:07:44;;;;;;;3.50;0.55;;;;;;;7.14;77.25;99576.81;7393778;19;20522;-67
2022/01/09 04:10:22;;;;;;;8.35;0.70;;;;;;;7.16;77.16;99580.06;7392268;19;20424;-67
2022/01/09 04:12:52;;;;;;;4.10;0.60;;;;;;;7.18;76.99;99572.88;7392830;19;20006;-67
2022/01/09 04:15:19;;;;;;;6.43;0.32;;;;;;;7.19;76.73;99576.31;7394132;19;20034;-68
2022/01/09 04:20:17;;;;;;;4.50;0.40;;;;;;;7.18;76.38;99577.28;7391268;19;20031;-68
2022/01/09 04:22:45;;;;;;;3.70;0.30;;;;;;;7.17;75.99;99581.69;7390034;19;20368;-66
2022/01/09 04:25:12;;;;;;;7.95;0.30;;;;;;;7.19;76.64;99581.53;7393347;19;20006;-67
2022/01/09 04:27:40;;;;;;;8.27;0.40;;;;;;;7.18;77.10;99570.25;7392483;19;20034;-68
2022/01/09 04:30:08;;;;;;;9.27;0.65;;;;;;;7.17;77.98;99575.66;7390377;19;20006;-67
2022/01/09 04:32:36;;;;;;;5.90;0.35;;;;;;;7.18;77.72;99567.66;7392361;19;20003;-68
2022/01/09 04:35:04;;;;;;;5.80;0.20;;;;;;;7.17;76.77;99570.41;7394313;19;20019;-67
2022/01/09 04:37:33;;;;;;;5.80;0.22;;;;;;;7.15;76.69;99570.59;7389905;19;20010;-66
2022/01/09 04:40:01;;;;;;;5.60;0.30;;;;;;;7.14;76.98;99568.97;7393650;19;20010;-67
2022/01/09 04:42:37;;;;;;;6.38;1.10;;;;;;;7.14;76.66;99574.19;7389584;19;20035;-67
2022/01/09 04:45:07;;;;;;;6.00;0.30;;;;;;;7.15;77.54;99567.97;7393600;19;20014;-67
2022/01/09 04:47:34;;;;;;;5.95;0.50;;;;;;;7.15;77.17;99578.44;7388295;19;20007;-66
2022/01/09 04:50:02;;;;;;;7.75;0.30;;;;;;;7.12;76.67;99581.38;7393853;19;20019;-67
2022/01/09 04:52:33;;;;;;;8.07;0.50;;;;;;;7.12;77.10;99583.97;7389076;19;20014;-66
2022/01/09 04:55:01;;;;;;;5.43;0.30;;;;;;;7.12;76.92;99588.41;7388814;19;20007;-68
2022/01/09 04:57:29;;;;;;;5.18;1.20;;;;;;;7.10;77.70;99593.81;7392268;19;20019;-67
2022/01/09 04:59:56;;;;;;;3.85;0.70;;;;;;;7.09;78.06;99600.00;7389113;19;20014;-67
2022/01/09 05:02:24;;;;;;;3.45;0.50;;;;;;;7.08;77.31;99602.78;7393575;19;20015;-66
2022/01/09 05:04:51;;;;;;;8.93;1.00;;;;;;;7.04;77.36;99610.13;7393041;19;20044;-68
2022/01/09 05:07:19;;;;;;;8.02;0.30;;;;;;;6.99;77.20;99614.19;7391065;19;20026;-67
2022/01/09 05:09:46;;;;;;;9.73;0.30;;;;;;;6.99;77.06;99622.88;7388973;19;20015;-68
2022/01/09 05:12:13;;;;;;;6.55;0.40;;;;;;;7.01;78.68;99626.13;7393290;19;20039;-67
2022/01/09 05:14:41;;;;;;;7.13;0.30;;;;;;;7.01;78.24;99626.13;7393168;19;20467;-66
2022/01/09 05:17:09;;;;;;;7.75;0.40;;;;;;;7.04;78.05;99620.59;7389612;19;20010;-66
2022/01/09 05:19:36;;;;;;;7.47;0.93;;;;;;;7.08;78.66;99628.94;7393038;19;20034;-67
2022/01/09 05:22:05;;;;;;;10.55;0.60;;;;;;;7.10;77.79;99624.38;7392121;19;20014;-66
2022/01/09 05:24:33;;;;;;;6.72;0.60;;;;;;;7.07;77.11;99633.34;7389063;19;20034;-66
2022/01/09 05:27:00;;;;;;;5.60;0.57;;;;;;;7.10;78.23;99632.22;7391764;19;20015;-65
2022/01/09 05:29:27;;;;;;;8.05;0.57;;;;;;;7.06;76.82;99629.06;7387871;19;20139;-66
2022/01/09 05:31:55;;;;;;;6.57;0.60;;;;;;;7.07;76.53;99633.34;7388586;19;20029;-67
2022/01/09 05:34:23;;;;;;;5.80;0.32;;;;;;;7.06;77.65;99628.28;7393623;19;20018;-67
2022/01/09 05:36:50;;;;;;;11.23;0.50;;;;;;;7.01;76.63;99633.19;7387913;19;20480;-68
2022/01/09 05:39:27;;;;;;;9.20;3.17;;;;;;;7.01;78.36;99631.34;7391464;19;20014;-66
2022/01/09 05:41:54;;;;;;;7.20;0.70;;;;;;;7.01;79.20;99631.34;7390759;19;20010;-67
2022/01/09 05:44:25;;;;;;;5.22;0.50;;;;;;;7.00;78.06;99637.59;7387482;19;20015;-66
2022/01/09 05:46:53;;;;;;;8.75;0.40;;;;;;;7.00;78.05;99628.91;7390504;19;20014;-66
2022/01/09 05:49:20;;;;;;;6.50;1.02;;;;;;;7.01;77.89;99633.19;7387040;19;20006;-67
2022/01/09 05:51:47;;;;;;;11.27;0.50;;;;;;;6.97;77.46;99629.22;7388793;19;20002;-66
2022/01/09 05:54:14;;;;;;;3.95;1.60;;;;;;;6.97;77.90;99634.44;7388622;19;20015;-65
2022/01/09 05:56:42;;;;;;;5.47;0.50;;;;;;;6.95;78.54;99645.09;7385589;19;20024;-67
2022/01/09 05:59:09;;;;;;;13.13;0.47;;;;;;;6.95;78.36;99655.53;7386911;19;20038;-68
2022/01/09 06:01:37;;;;;;;6.00;0.65;;;;;;;6.92;78.23;99641.94;7388580;19;20241;-66
2022/01/09 06:04:05;;;;;;;7.18;0.40;;;;;;;6.89;77.99;99640.50;7388655;19;20475;-65
2022/01/09 06:06:33;;;;;;;5.90;0.57;;;;;;;6.87;77.67;99643.25;7390320;19;20373;-66
2022/01/09 06:09:00;;;;;;;5.05;0.75;;;;;;;6.87;78.27;99638.03;7388516;19;20014;-68
2022/01/09 06:11:28;;;;;;;8.73;0.47;;;;;;;6.92;78.59;99648.00;7389881;19;20010;-66
2022/01/09 06:13:55;;;;;;;7.13;0.50;;;;;;;6.89;77.67;99640.50;7385741;19;20010;-66
2022/01/09 06:16:24;;;;;;;6.22;0.30;;;;;;;6.91;78.97;99643.75;7386163;19;20348;-67
2022/01/09 06:18:51;;;;;;;3.58;0.20;;;;;;;6.93;78.41;99638.38;7390779;19;20019;-67
2022/01/09 06:21:18;;;;;;;5.15;0.63;;;;;;;6.91;78.12;99635.91;7388573;19;20026;-66
2022/01/09 06:23:46;;;;;;;8.05;0.68;;;;;;;6.86;77.69;99635.56;7387522;19;20030;-67
2022/01/09 06:26:15;;;;;;;11.85;0.50;;;;;;;6.82;77.56;99639.47;7386377;19;20364;-68
2022/01/09 06:28:43;;;;;;;5.65;0.30;;;;;;;6.81;78.21;99640.44;7386079;19;20035;-68
2022/01/09 06:31:11;;;;;;;4.72;0.40;;;;;;;6.80;77.90;99637.03;7388380;19;20034;-67
2022/01/09 06:33:38;;;;;;;4.13;0.50;;;;;;;6.79;78.01;99638.00;7387705;19;20656;-66
2022/01/09 06:36:05;;;;;;;3.75;0.30;;;;;;;6.79;78.10;99640.63;7387648;19;20042;-65
2022/01/09 06:38:33;;;;;;;12.13;0.40;;;;;;;6.77;78.19;99644.34;7388821;19;20587;-66
2022/01/09 06:41:00;;;;;;;6.68;0.30;;;;;;;6.76;78.35;99648.75;7387489;19;20022;-66
2022/01/09 06:43:27;;;;;;;5.53;0.50;;;;;;;6.77;78.74;99654.81;7390027;19;20006;-67
2022/01/09 06:45:55;;;;;;;6.22;0.38;;;;;;;6.78;79.52;99659.06;7388279;19;20013;-67
2022/01/09 06:48:22;;;;;;;7.25;0.75;;;;;;;6.78;78.96;99659.06;7384754;19;20010;-66
2022/01/09 06:50:50;;;;;;;8.77;1.70;;;;;;;6.78;79.71;99664.28;7386093;19;20491;-67
2022/01/09 06:53:17;;;;;;;5.88;0.32;;;;;;;6.70;78.38;99661.66;7385376;19;20006;-67
2022/01/09 06:55:46;;;;;;;8.85;0.35;;;;;;;6.66;78.00;99662.94;7386702;19;20010;-66
2022/01/09 06:58:14;;;;;;;2.58;0.75;;;;;;;6.61;78.13;99668.63;7387448;19;20010;-66
2022/01/09 07:00:43;;;;;;;4.93;0.20;;;;;;;6.60;78.65;99674.03;7385728;19;20479;-67
2022/01/09 07:03:10;;;;;;;5.80;0.40;;;;;;;6.58;78.88;99682.00;7388026;19;20435;-66
2022/01/09 07:05:38;;;;;;;8.27;0.77;;;;;;;6.57;79.26;99687.38;7390668;19;20019;-65
2022/01/09 07:08:09;;;;;;;5.25;0.30;;;;;;;6.56;79.13;99681.34;7389963;19;20035;-68
2022/01/09 07:10:37;;;;;;;7.38;0.93;;;;;;;6.56;78.83;99685.75;7390820;19;20019;-65
2022/01/09 07:13:05;;;;;;;6.22;0.28;;;;;;;6.55;78.91;99692.78;7393841;19;20034;-67
2022/01/09 07:15:32;;;;;;;8.23;0.50;;;;;;;6.53;78.78;99689.50;7392285;19;20676;-66
2022/01/09 07:18:00;;;;;;;10.88;0.30;;;;;;;6.52;79.02;99697.47;7395621;19;20007;-66
2022/01/09 07:20:32;;;;;;;6.13;0.52;;;;;;;6.50;79.28;99695.03;7392480;19;20082;-67
2022/01/09 07:23:00;;;;;;;7.15;0.60;;;;;;;6.50;79.22;99708.09;7390978;19;20051;-67
2022/01/09 07:25:27;;;;;;;6.95;1.20;;;;;;;6.48;79.42;99712.66;7394765;19;20007;-67
2022/01/09 07:27:54;;;;;;;7.50;0.63;;;;;;;6.47;80.00;99712.81;7399151;19;20078;-67
2022/01/09 07:30:21;;;;;;;8.38;1.60;;;;;;;6.45;80.36;99729.44;7397560;19;20014;-67
2022/01/09 07:32:49;;;;;;;6.55;0.40;;;;;;;6.47;79.78;99724.06;7392060;19;20710;-69
2022/01/09 07:35:16;;;;;;;4.95;0.50;;;;;;;6.47;79.62;99724.06;7396438;19;20015;-67
2022/01/09 07:37:43;;;;;;;5.32;0.35;;;;;;;6.49;79.55;99726.53;7390085;19;20042;-68
2022/01/09 07:40:12;;;;;;;5.63;0.43;;;;;;;6.50;80.20;99717.75;7391465;19;20010;-67
2022/01/09 07:42:39;;;;;;;8.75;0.40;;;;;;;6.49;79.24;99735.19;7392434;19;20479;-67
2022/01/09 07:45:07;;;;;;;5.15;0.30;;;;;;;6.48;79.58;99733.56;7392205;19;20029;-67
2022/01/09 07:47:36;;;;;;;6.72;1.08;;;;;;;6.49;79.53;99718.72;7394965;19;20127;-67
2022/01/09 07:50:05;;;;;;;6.60;0.40;;;;;;;6.49;79.10;99724.75;7391683;19;20030;-68
2022/01/09 07:52:35;;;;;;;5.00;0.50;;;;;;;6.50;79.41;99720.34;7392027;19;20039;-68
2022/01/09 07:55:05;;;;;;;4.72;0.43;;;;;;;6.52;79.28;99734.88;7390979;19;20003;-68
2022/01/09 07:57:32;;;;;;;5.50;0.50;;;;;;;6.52;79.18;99729.66;7391827;19;20014;-67
2022/01/09 08:00:03;;;;;;;8.05;1.00;;;;;;;6.52;79.57;99739.28;7393788;19;20033;-67
2022/01/09 08:02:30;;;;;;;5.50;0.30;;;;;;;6.50;79.46;99747.31;7391586;19;20087;-67
2022/01/09 08:04:58;;;;;;;6.47;0.30;;;;;;;6.51;81.60;99742.88;7394565;19;20018;-67
2022/01/09 08:07:25;;;;;;;12.55;0.70;;;;;;;6.52;80.14;99758.41;7393413;19;20022;-67
2022/01/09 08:09:53;;;;;;;7.05;0.38;;;;;;;6.51;80.12;99761.16;7393112;19;20014;-66
2022/01/09 08:12:20;;;;;;;7.35;0.45;;;;;;;6.49;79.91;99766.56;7398491;19;20003;-66
2022/01/09 08:14:47;;;;;;;6.53;0.50;;;;;;;6.48;79.59;99764.91;7391501;19;20011;-65
2022/01/09 08:17:15;;;;;;;8.00;0.70;;;;;;;6.47;79.54;99758.03;7389043;19;20017;-66
2022/01/09 08:19:42;;;;;;;7.53;0.40;;;;;;;6.47;79.53;99757.22;7395756;19;20034;-67
2022/01/09 08:22:10;;;;;;;8.43;0.40;;;;;;;6.47;79.34;99754.59;7392421;19;20023;-67
2022/01/09 08:24:39;;;;;;;7.88;0.77;;;;;;;6.49;79.53;99756.09;7389991;19;20345;-66
2022/01/09 08:27:07;;;;;;;6.57;0.30;;;;;;;6.53;80.08;99761.84;7391240;19;20353;-66
2022/01/09 08:29:37;;;;;;;5.22;0.50;;;;;;;6.52;78.95;99765.41;7390296;19;20022;-67
2022/01/09 08:32:07;;;;;;;6.07;0.85;;;;;;;6.56;80.00;99771.97;7388150;19;20671;-66
2022/01/09 08:34:38;;;;;;;10.40;0.52;;;;;;;6.52;79.53;99766.25;7391298;19;20439;-66
2022/01/09 08:37:11;;;;;;;18.17;4.90;;;;;;;6.50;79.56;99775.22;7387762;19;20006;-68
2022/01/09 08:39:41;;;;;;;4.60;0.47;;;;;;;6.48;80.26;99777.97;7389169;19;20011;-67
2022/01/09 08:42:09;;;;;;;6.30;0.50;;;;;;;6.50;79.93;99775.22;7389720;19;20038;-68
2022/01/09 08:44:39;;;;;;;9.05;1.58;;;;;;;6.51;80.83;99774.22;7389084;19;20014;-67
2022/01/09 08:47:09;;;;;;;7.93;0.40;;;;;;;6.52;80.62;99783.69;7390647;19;20011;-68
2022/01/09 08:49:42;;;;;;;9.07;0.75;;;;;;;6.50;79.33;99767.38;7389848;19;20074;-67
2022/01/09 08:52:10;;;;;;;8.90;0.40;;;;;;;6.49;79.90;99773.56;7389682;19;20030;-67
2022/01/09 08:54:37;;;;;;;10.18;0.60;;;;;;;6.43;79.23;99775.81;7391894;19;20354;-67
2022/01/09 08:57:06;;;;;;;6.93;0.77;;;;;;;6.44;79.30;99772.25;7387147;19;20007;-67
2022/01/09 08:59:34;;;;;;;8.52;0.65;;;;;;;6.43;79.95;99778.44;7389089;19;20010;-67
2022/01/09 09:02:01;;;;;;;5.47;0.40;;;;;;;6.43;79.51;99777.59;7389519;19;20007;-66
2022/01/09 09:04:29;;;;;;;10.18;1.02;;;;;;;6.48;79.99;99785.81;7392348;19;20019;-68
2022/01/09 09:06:56;;;;;;;5.68;0.40;;;;;;;6.53;80.76;99785.34;7390650;19;20011;-67
2022/01/09 09:09:23;;;;;;;7.88;1.05;;;;;;;6.54;79.91;99787.00;7387459;19;20010;-67
2022/01/09 09:11:51;;;;;;;6.68;0.75;;;;;;;6.57;80.44;99782.28;7392313;19;20019;-68
2022/01/09 09:14:22;;;;;;;4.88;0.60;;;;;;;6.60;80.21;99794.22;7387537;19;20034;-67
2022/01/09 09:16:49;;;;;;;4.80;0.38;;;;;;;6.58;79.03;99793.56;7388061;19;20014;-67
2022/01/09 09:19:17;;;;;;;10.73;0.57;;;;;;;6.63;81.69;99791.28;7391619;19;20010;-67
2022/01/09 09:21:46;;;;;;;9.70;0.40;;;;;;;6.66;81.43;99798.81;7390807;19;20018;-67
2022/01/09 09:24:13;;;;;;;16.33;2.78;;;;;;;6.67;80.75;99803.91;7387592;19;20027;-67
2022/01/09 09:26:41;;;;;;;6.07;0.50;;;;;;;6.72;81.95;99798.22;7389154;19;20498;-67
2022/01/09 09:29:08;;;;;;;11.02;0.68;;;;;;;6.72;80.44;99803.44;7388101;19;20486;-66
2022/01/09 09:31:36;;;;;;;7.05;0.70;;;;;;;6.72;80.26;99795.59;7392735;19;20014;-66
2022/01/09 09:34:05;;;;;;;6.20;0.40;;;;;;;6.72;80.05;99803.44;7389468;19;20785;-66
2022/01/09 09:36:33;;;;;;;4.70;0.45;;;;;;;6.77;79.84;99803.81;7388300;19;20542;-66
2022/01/09 09:39:01;;;;;;;10.25;1.60;;;;;;;6.80;80.36;99793.06;7387553;19;20430;-68
2022/01/09 09:41:29;;;;;;;8.85;0.60;;;;;;;6.83;80.50;99805.81;7388143;19;20820;-65
2022/01/09 09:43:56;;;;;;;7.63;0.40;;;;;;;6.85;79.65;99812.53;7390584;19;20022;-68
2022/01/09 09:46:25;;;;;;;8.38;0.60;;;;;;;6.91;80.63;99820.72;7387666;19;20010;-66
2022/01/09 09:48:54;;;;;;;5.97;0.63;;;;;;;6.93;80.38;99816.97;7388326;19;20377;-67
2022/01/09 09:53:53;;;;;;;5.80;0.80;;;;;;;6.97;80.22;99828.75;7391014;19;20018;-67
2022/01/09 09:56:20;;;;;;;8.10;0.82;;;;;;;7.02;79.39;99839.56;7387095;19;20455;-67
2022/01/09 09:58:50;;;;;;;5.88;0.43;;;;;;;7.05;79.90;99839.28;7385905;19;20011;-66
2022/01/09 10:01:23;;;;;;;12.98;1.30;;;;;;;7.08;79.94;99840.75;7387120;19;20018;-68
2022/01/09 10:04:03;;;;;;;7.30;0.90;;;;;;;7.07;78.71;99845.16;7388213;19;20015;-66
2022/01/09 10:06:42;;;;;;;12.50;0.50;;;;;;;7.10;79.18;99859.75;7391523;19;20018;-65
2022/01/09 10:09:12;;;;;;;6.15;0.70;;;;;;;7.17;79.48;99850.28;7389250;19;20007;-65
2022/01/09 10:11:54;;;;;;;5.13;0.65;;;;;;;7.21;78.80;99855.03;7391131;19;20385;-67
2022/01/09 10:14:29;;;;;;;12.15;1.48;;;;;;;7.25;80.87;99837.25;7392580;19;20022;-67
2022/01/09 10:17:02;;;;;;;7.07;0.60;;;;;;;7.27;79.78;99827.44;7389731;19;20457;-67
2022/01/09 10:19:36;;;;;;;15.20;0.60;;;;;;;7.28;79.14;99829.09;7393372;19;20340;-66
2022/01/09 10:22:04;;;;;;;8.40;0.77;;;;;;;7.32;79.69;99830.41;7386715;19;20015;-66
2022/01/09 10:24:31;;;;;;;5.22;0.52;;;;;;;7.36;78.72;99833.56;7385887;19;20003;-65
2022/01/09 10:27:00;;;;;;;11.65;0.93;;;;;;;7.36;78.67;99844.84;7384957;19;20010;-67
2022/01/09 10:29:30;;;;;;;7.40;0.68;;;;;;;7.37;78.97;99836.00;7386035;19;20034;-67
2022/01/09 10:31:57;;;;;;;5.10;0.63;;;;;;;7.40;78.64;99834.88;7387562;19;20038;-67
2022/01/09 10:34:25;;;;;;;5.72;0.60;;;;;;;7.44;78.31;99838.81;7389115;19;20010;-66
2022/01/09 10:36:52;;;;;;;10.48;0.70;;;;;;;7.48;78.98;99832.28;7384592;19;20494;-67
2022/01/09 10:39:30;;;;;;;9.27;1.75;;;;;;;7.53;78.65;99840.47;7388829;19;20007;-66
2022/01/09 10:42:07;;;;;;;13.82;1.77;;;;;;;7.58;78.13;99835.59;7387017;19;20034;-66
2022/01/09 10:44:38;;;;;;;12.02;1.85;;;;;;;7.61;77.97;99843.13;7387529;19;20011;-66
2022/01/09 10:47:12;;;;;;;11.25;1.45;;;;;;;7.65;77.96;99852.31;7393040;19;20022;-66
2022/01/09 10:49:42;;;;;;;8.20;0.63;;;;;;;7.69;77.62;99854.44;7395242;19;20010;-67
2022/01/09 10:52:13;;;;;;;8.88;0.45;;;;;;;7.72;77.34;99855.91;7397577;19;20342;-67
2022/01/09 10:54:46;;;;;;;8.82;1.02;;;;;;;7.78;77.55;99865.75;7393066;19;20014;-67
2022/01/09 10:57:18;;;;;;;3.25;0.82;;;;;;;7.82;79.20;99861.03;7391401;19;20082;-67
2022/01/09 10:59:46;;;;;;;6.85;0.63;;;;;;;7.86;78.64;99857.13;7392518;19;20006;-66
2022/01/09 11:02:14;;;;;;;11.32;0.70;;;;;;;7.90;78.25;99868.91;7396438;19;20146;-67
2022/01/09 11:04:44;;;;;;;9.23;1.33;;;;;;;7.93;77.53;99865.97;7396847;19;20119;-67
2022/01/09 11:07:12;;;;;;;7.78;0.47;;;;;;;7.94;76.75;99876.28;7392450;19;20011;-67
2022/01/09 11:09:42;;;;;;;5.75;0.70;;;;;;;8.00;79.21;99875.66;7392450;19;20361;-67
2022/01/09 11:12:16;;;;;;;9.15;0.80;;;;;;;8.07;81.15;99878.47;7394689;19;20095;-67
2022/01/09 11:14:44;;;;;;;6.32;0.60;;;;;;;8.08;80.10;99861.75;7394297;19;20013;-66
2022/01/09 11:17:12;;;;;;;7.75;1.55;;;;;;;8.08;79.38;99872.22;7397131;19;20011;-66
2022/01/09 11:19:45;;;;;;;12.35;1.65;;;;;;;8.12;78.38;99878.81;7397602;19;20010;-66
2022/01/09 11:22:12;;;;;;;9.05;1.48;;;;;;;8.15;78.29;99881.91;7395642;19;20022;-67
2022/01/09 11:24:46;;;;;;;8.25;0.70;;;;;;;8.18;77.30;99893.06;7395143;19;20014;-67
2022/01/09 11:27:23;;;;;;;14.48;0.70;;;;;;;8.17;76.99;99884.38;7389791;19;20010;-67
2022/01/09 11:30:00;;;;;;;5.32;0.57;;;;;;;8.23;76.21;99888.16;7391159;19;20074;-68
2022/01/09 11:32:36;;;;;;;9.15;0.75;;;;;;;8.25;76.45;99883.56;7392700;19;20644;-66
2022/01/09 11:35:10;;;;;;;4.10;0.38;;;;;;;8.27;76.15;99881.63;7391667;19;20102;-67
2022/01/09 11:37:41;;;;;;;5.88;0.50;;;;;;;8.27;76.12;99887.69;7387382;19;20546;-68
2022/01/09 11:40:14;;;;;;;5.30;0.50;;;;;;;8.32;77.04;99882.81;7396006;19;20056;-66
2022/01/09 11:43:00;;;;;;;5.20;0.40;;;;;;;8.34;76.26;99887.84;7391119;19;20010;-67
2022/01/09 11:45:34;;;;;;;4.72;0.43;;;;;;;8.38;75.94;99889.19;7391846;19;20009;-67
2022/01/09 11:48:02;;;;;;;6.13;0.70;;;;;;;8.39;75.97;99890.81;7392363;19;20328;-66
2022/01/09 11:50:29;;;;;;;4.30;0.50;;;;;;;8.43;76.03;99894.78;7383844;19;20040;-66
2022/01/09 11:52:59;;;;;;;6.70;0.52;;;;;;;8.46;75.22;99878.72;7386154;19;20007;-66
2022/01/09 11:55:37;;;;;;;6.32;0.60;;;;;;;8.44;74.34;99888.53;7387104;19;20507;-65
2022/01/09 11:58:09;;;;;;;13.75;0.47;;;;;;;8.46;73.84;99890.03;7383959;19;20006;-67